Time;durP1;ratioP1;P1;durP2;ratioP2;P2;SDS_P1;SDS_P2;PMS_P1;PMS_P2;Temp;Humidity;BMP_temperature;BMP_pressure;BME280_temperature;BME280_humidity;BME280_pressure;Samples;Min_cycle;Max_cycle;Signal;HPM_P1;HPM_P2
2022/06/19 00:00:09;;;;;;;3.70;3.40;;;;;;;25.00;47.71;101017.63;4795443;29;20050;-70
2022/06/19 00:02:43;;;;;;;5.60;3.20;;;;;;;24.96;47.15;101017.56;4795388;29;20067;-70
2022/06/19 00:05:14;;;;;;;3.60;3.30;;;;;;;25.02;47.70;101011.66;4797772;29;20058;-70
2022/06/19 00:07:43;;;;;;;3.97;3.25;;;;;;;25.08;47.70;101013.00;4800194;29;20058;-70
2022/06/19 00:10:14;;;;;;;4.80;4.00;;;;;;;25.01;47.19;101007.22;4790918;29;20055;-71
2022/06/19 00:12:43;;;;;;;4.55;3.10;;;;;;;24.93;47.39;100998.69;4798729;29;20067;-70
2022/06/19 00:15:10;;;;;;;3.67;3.38;;;;;;;24.83;48.24;100993.72;4804191;29;20050;-71
2022/06/19 00:17:39;;;;;;;3.65;3.17;;;;;;;24.89;47.06;100997.00;4804653;29;20047;-70
2022/06/19 00:20:08;;;;;;;4.45;3.83;;;;;;;24.93;46.79;100990.28;4799268;29;20058;-70
2022/06/19 00:22:36;;;;;;;4.75;3.72;;;;;;;24.98;46.42;100999.59;4796398;29;20055;-71
2022/06/19 00:25:05;;;;;;;3.42;3.13;;;;;;;24.98;46.83;100996.78;4797219;29;20070;-70
2022/06/19 00:27:39;;;;;;;5.93;3.50;;;;;;;24.98;46.56;100991.19;4804734;29;20061;-70
2022/06/19 00:30:10;;;;;;;4.20;3.13;;;;;;;24.87;46.63;100991.78;4813402;29;20069;-70
2022/06/19 00:32:38;;;;;;;3.97;3.17;;;;;;;24.83;46.89;100991.72;4822825;29;20049;-70
2022/06/19 00:35:07;;;;;;;3.28;3.03;;;;;;;24.81;47.04;100982.06;4823111;29;20494;-70
2022/06/19 00:37:35;;;;;;;3.50;3.03;;;;;;;24.78;47.57;100988.38;4822142;29;20506;-70
2022/06/19 00:40:05;;;;;;;4.05;3.50;;;;;;;24.73;47.16;100988.66;4801155;29;20051;-70
2022/06/19 00:42:33;;;;;;;4.88;3.65;;;;;;;24.67;47.94;100983.34;4818359;29;20054;-70
2022/06/19 00:45:02;;;;;;;5.75;3.42;;;;;;;24.60;47.70;100983.22;4821593;29;20046;-70
2022/06/19 00:47:38;;;;;;;4.43;3.63;;;;;;;24.60;47.57;100974.81;4822879;29;20411;-70
2022/06/19 00:50:29;;;;;;;3.97;2.90;;;;;;;24.75;47.86;100977.91;4822747;29;20074;-70
2022/06/19 00:53:00;;;;;;;4.57;3.15;;;;;;;24.62;48.95;100963.25;4822455;29;20050;-70
2022/06/19 00:55:32;;;;;;;7.93;3.42;;;;;;;24.65;48.27;100963.34;4808728;29;20054;-70
2022/06/19 00:58:24;;;;;;;3.83;3.20;;;;;;;24.57;48.65;100967.16;4822627;29;20046;-70
2022/06/19 01:00:56;;;;;;;3.55;3.25;;;;;;;24.46;49.09;100964.13;4814864;29;20051;-70
2022/06/19 01:03:32;;;;;;;3.78;3.00;;;;;;;24.26;50.47;100963.28;4824543;29;20065;-70
2022/06/19 01:06:00;;;;;;;4.13;3.42;;;;;;;24.15;50.60;100958.25;4825201;29;20062;-70
2022/06/19 01:08:30;;;;;;;4.18;3.65;;;;;;;24.17;50.67;100960.69;4825193;29;20050;-70
2022/06/19 01:10:59;;;;;;;3.95;3.55;;;;;;;24.02;51.30;100959.53;4825480;29;20059;-70
2022/06/19 01:13:30;;;;;;;3.70;3.40;;;;;;;23.97;51.65;100959.81;4824023;29;20054;-70
2022/06/19 01:16:00;;;;;;;4.15;3.05;;;;;;;24.06;51.37;100957.63;4811810;29;20050;-70
2022/06/19 01:18:31;;;;;;;4.63;3.25;;;;;;;24.13;51.29;100957.81;4824295;29;20066;-70
2022/06/19 01:21:31;;;;;;;3.67;3.30;;;;;;;24.16;51.36;100959.88;4814554;29;20061;-70
2022/06/19 01:24:12;;;;;;;3.55;3.10;;;;;;;24.00;51.89;100956.28;4811843;29;20060;-70
2022/06/19 01:26:45;;;;;;;3.75;3.45;;;;;;;23.83;52.63;100958.28;4801699;29;20051;-69
2022/06/19 01:29:14;;;;;;;3.78;3.47;;;;;;;23.58;53.46;100952.91;4808643;29;20050;-70
2022/06/19 01:31:45;;;;;;;4.10;3.35;;;;;;;23.52;53.88;100951.56;4803106;29;20415;-70
2022/06/19 01:34:29;;;;;;;4.15;3.65;;;;;;;23.54;53.79;100943.63;4813895;29;20054;-70
2022/06/19 01:37:13;;;;;;;4.05;3.65;;;;;;;23.55;54.01;100948.03;4801653;29;20507;-70
2022/06/19 01:39:48;;;;;;;4.78;3.58;;;;;;;23.69;53.67;100942.00;4797551;29;20051;-70
2022/06/19 01:42:16;;;;;;;4.78;4.07;;;;;;;23.65;53.82;100937.50;4798674;29;20057;-70
2022/06/19 01:44:45;;;;;;;3.63;3.33;;;;;;;23.41;54.39;100928.91;4800486;29;20403;-70
2022/06/19 01:47:15;;;;;;;3.47;3.13;;;;;;;23.29;55.26;100932.59;4804653;29;20062;-70
2022/06/19 01:49:48;;;;;;;3.90;3.25;;;;;;;23.33;54.78;100925.16;4796576;29;20074;-70
2022/06/19 01:52:18;;;;;;;3.90;3.60;;;;;;;23.15;55.64;100923.81;4797866;29;20058;-70
2022/06/19 01:54:59;;;;;;;3.88;3.47;;;;;;;23.20;55.44;100915.19;4796414;29;20055;-70
2022/06/19 01:57:27;;;;;;;3.83;3.53;;;;;;;23.23;55.26;100920.88;4804507;29;20055;-70
2022/06/19 01:59:57;;;;;;;3.88;3.58;;;;;;;23.21;55.58;100919.59;4792712;29;20423;-70
2022/06/19 02:02:25;;;;;;;7.15;3.58;;;;;;;23.28;55.51;100922.59;4799843;29;20043;-70
2022/06/19 02:04:55;;;;;;;4.28;3.80;;;;;;;23.33;55.01;100918.75;4795117;29;20054;-70
2022/06/19 02:07:24;;;;;;;4.75;3.60;;;;;;;23.39;54.90;100905.31;4801596;29;20060;-70
2022/06/19 02:09:52;;;;;;;4.28;3.22;;;;;;;23.40;54.92;100915.34;4798957;29;20058;-69
2022/06/19 02:12:22;;;;;;;4.00;3.60;;;;;;;23.21;55.76;100905.66;4804852;29;20042;-70
2022/06/19 02:14:51;;;;;;;3.90;3.50;;;;;;;23.16;55.83;100908.72;4804276;29;20039;-70
2022/06/19 02:17:25;;;;;;;4.72;3.75;;;;;;;23.13;55.94;100898.25;4799653;29;20070;-70
2022/06/19 02:19:53;;;;;;;4.05;3.65;;;;;;;22.98;56.47;100900.69;4805293;29;20046;-70
2022/06/19 02:22:21;;;;;;;3.88;3.42;;;;;;;22.87;56.83;100900.38;4805304;29;20498;-69
2022/06/19 02:24:49;;;;;;;3.80;3.38;;;;;;;22.81;57.13;100894.25;4801529;29;20051;-70
2022/06/19 02:27:18;;;;;;;3.88;3.53;;;;;;;22.87;57.02;100896.81;4801436;29;20051;-70
2022/06/19 02:29:47;;;;;;;3.90;3.30;;;;;;;22.76;57.47;100902.06;4795971;29;20499;-70
2022/06/19 02:32:29;;;;;;;4.40;3.47;;;;;;;22.90;56.72;100899.69;4804840;29;20058;-70
2022/06/19 02:34:57;;;;;;;4.22;3.60;;;;;;;22.72;57.38;100893.59;4797248;29;20051;-70
2022/06/19 02:37:30;;;;;;;3.83;3.53;;;;;;;22.62;57.56;100892.13;4804957;29;20513;-70
2022/06/19 02:40:08;;;;;;;9.02;3.50;;;;;;;22.58;57.36;100905.16;4796630;29;20609;-70
2022/06/19 02:42:44;;;;;;;4.20;3.80;;;;;;;22.43;57.92;100912.28;4805027;29;20398;-70
2022/06/19 02:45:22;;;;;;;4.60;3.35;;;;;;;22.35;58.46;100905.69;4791802;29;20066;-70
2022/06/19 02:47:52;;;;;;;3.30;3.10;;;;;;;22.64;57.72;100906.53;4809639;29;20443;-70
2022/06/19 02:50:23;;;;;;;3.55;3.25;;;;;;;22.58;58.48;100907.94;4803232;29;20059;-70
2022/06/19 02:52:51;;;;;;;5.85;3.67;;;;;;;22.72;58.26;100907.53;4802254;29;20394;-70
2022/06/19 02:55:20;;;;;;;3.90;3.60;;;;;;;22.66;58.50;100912.59;4804617;29;20062;-70
2022/06/19 02:57:49;;;;;;;4.05;3.75;;;;;;;22.47;59.10;100906.78;4807237;29;20058;-70
2022/06/19 03:00:24;;;;;;;3.95;3.65;;;;;;;22.50;59.06;100906.09;4814088;29;20410;-70
2022/06/19 03:03:00;;;;;;;3.78;3.45;;;;;;;22.39;59.05;100898.22;4800231;29;20058;-70
2022/06/19 03:05:29;;;;;;;5.28;3.83;;;;;;;22.26;59.56;100903.06;4812093;29;20054;-70
2022/06/19 03:07:57;;;;;;;4.53;3.55;;;;;;;22.28;59.38;100906.28;4801410;29;20078;-70
2022/06/19 03:10:26;;;;;;;4.30;3.80;;;;;;;22.39;58.98;100905.78;4806399;29;20061;-70
2022/06/19 03:12:54;;;;;;;5.07;3.05;;;;;;;22.26;59.38;100899.44;4796966;29;20495;-70
2022/06/19 03:15:22;;;;;;;3.40;3.10;;;;;;;22.28;59.15;100903.50;4806329;29;20057;-70
2022/06/19 03:17:50;;;;;;;3.65;3.35;;;;;;;22.39;59.03;100903.00;4796146;29;20407;-70
2022/06/19 03:20:22;;;;;;;5.60;3.53;;;;;;;22.43;58.77;100906.69;4791691;29;20062;-70
2022/06/19 03:22:51;;;;;;;4.53;3.55;;;;;;;22.37;59.16;100908.09;4802687;29;20055;-70
2022/06/19 03:25:22;;;;;;;4.03;3.63;;;;;;;22.41;58.95;100903.47;4799793;29;20066;-70
2022/06/19 03:27:50;;;;;;;7.18;3.45;;;;;;;22.32;59.14;100911.97;4811068;29;20129;-70
2022/06/19 03:30:20;;;;;;;4.38;3.97;;;;;;;22.08;60.40;100912.81;4797858;29;20064;-70
2022/06/19 03:32:48;;;;;;;5.15;4.00;;;;;;;22.03;60.13;100913.88;4807745;29;20046;-70
2022/06/19 03:35:17;;;;;;;3.90;3.45;;;;;;;21.95;60.54;100915.63;4794808;29;20047;-70
2022/06/19 03:37:46;;;;;;;4.00;3.38;;;;;;;21.84;61.34;100920.03;4804384;29;20608;-69
2022/06/19 03:40:15;;;;;;;3.63;3.28;;;;;;;21.77;61.14;100923.44;4800658;29;20055;-70
2022/06/19 03:42:43;;;;;;;4.68;3.40;;;;;;;21.79;61.30;100923.09;4801546;29;20057;-70
2022/06/19 03:45:11;;;;;;;5.05;3.78;;;;;;;21.92;61.13;100924.69;4798767;29;20050;-69
2022/06/19 03:47:39;;;;;;;3.40;3.10;;;;;;;21.86;61.17;100931.66;4803405;29;20396;-70
2022/06/19 03:50:08;;;;;;;4.95;3.85;;;;;;;21.91;61.42;100931.44;4804198;29;20501;-70
2022/06/19 03:52:36;;;;;;;4.07;3.42;;;;;;;22.27;60.38;100921.38;4801218;29;20063;-70
2022/06/19 03:55:05;;;;;;;4.47;3.40;;;;;;;22.32;60.18;100939.84;4803368;29;20054;-70
2022/06/19 03:57:33;;;;;;;5.43;3.72;;;;;;;22.32;59.77;100934.25;4795982;29;20058;-71
2022/06/19 04:00:01;;;;;;;4.10;3.70;;;;;;;22.25;60.05;100931.28;4803243;29;20058;-71
2022/06/19 04:02:38;;;;;;;4.00;3.70;;;;;;;22.10;60.41;100938.38;4796884;29;20050;-71
2022/06/19 04:05:07;;;;;;;3.92;3.53;;;;;;;22.17;60.10;100940.56;4800341;29;20058;-71
2022/06/19 04:07:42;;;;;;;4.80;4.15;;;;;;;22.11;60.55;100940.00;4789053;29;20073;-71
2022/06/19 04:10:11;;;;;;;4.40;3.38;;;;;;;22.22;60.38;100934.75;4803406;29;20063;-71
2022/06/19 04:12:38;;;;;;;4.05;3.60;;;;;;;22.40;59.68;100924.16;4798021;29;20058;-71
2022/06/19 04:15:08;;;;;;;6.07;3.95;;;;;;;22.41;59.30;100925.75;4796573;29;20066;-71
2022/06/19 04:17:37;;;;;;;4.53;3.50;;;;;;;22.35;59.84;100932.75;4795551;29;20062;-71
2022/06/19 04:20:07;;;;;;;4.53;3.78;;;;;;;22.52;58.90;100931.69;4795230;29;20073;-71
2022/06/19 04:22:36;;;;;;;4.05;3.65;;;;;;;22.67;58.28;100927.31;4804693;29;20051;-70
2022/06/19 04:25:06;;;;;;;5.40;3.97;;;;;;;22.52;59.17;100931.69;4798629;29;20047;-71
2022/06/19 04:27:37;;;;;;;3.65;3.35;;;;;;;22.40;59.70;100926.94;4800293;29;20069;-71
2022/06/19 04:30:05;;;;;;;4.50;3.97;;;;;;;22.59;59.05;100936.66;4823335;29;20065;-71
2022/06/19 04:32:33;;;;;;;3.72;3.35;;;;;;;22.66;58.76;100936.84;4821481;29;20047;-70
2022/06/19 04:35:01;;;;;;;4.15;3.75;;;;;;;22.75;58.83;100943.13;4811943;29;20058;-70
2022/06/19 04:37:29;;;;;;;4.13;3.72;;;;;;;22.91;57.79;100937.56;4804658;29;20055;-70
2022/06/19 04:39:57;;;;;;;4.00;3.63;;;;;;;22.84;58.17;100937.38;4793322;29;20491;-71
2022/06/19 04:42:25;;;;;;;4.40;3.40;;;;;;;22.83;57.74;100930.19;4801255;29;20499;-71
2022/06/19 04:44:53;;;;;;;4.53;3.47;;;;;;;22.81;58.06;100927.75;4799951;29;20057;-70
2022/06/19 04:47:20;;;;;;;3.58;3.28;;;;;;;22.79;58.04;100935.63;4806077;29;20054;-71
2022/06/19 04:49:49;;;;;;;4.63;4.22;;;;;;;22.98;57.26;100923.00;4806684;29;20055;-70
2022/06/19 04:52:17;;;;;;;4.03;3.63;;;;;;;22.94;57.61;100908.16;4803687;29;20054;-71
2022/06/19 04:54:45;;;;;;;3.80;3.50;;;;;;;22.96;57.80;100922.53;4803671;29;20054;-70
2022/06/19 04:57:13;;;;;;;4.10;3.70;;;;;;;23.09;57.38;100915.75;4806475;29;20061;-71
2022/06/19 04:59:43;;;;;;;4.13;3.72;;;;;;;23.34;55.83;100914.78;4799278;29;20059;-71
2022/06/19 05:02:14;;;;;;;4.22;3.33;;;;;;;23.40;55.11;100918.13;4806559;29;20051;-71
2022/06/19 05:04:42;;;;;;;3.40;3.10;;;;;;;23.58;54.34;100912.97;4804913;29;20073;-71
2022/06/19 05:07:10;;;;;;;3.85;3.40;;;;;;;23.85;52.83;100919.59;4800698;29;20067;-71
2022/06/19 05:09:38;;;;;;;3.50;3.20;;;;;;;23.93;52.86;100911.38;4802117;29;20062;-71
2022/06/19 05:12:06;;;;;;;3.25;3.05;;;;;;;24.35;51.70;100921.13;4802300;29;20065;-70
2022/06/19 05:14:34;;;;;;;4.38;3.38;;;;;;;24.33;51.29;100913.09;4811390;29;20051;-71
2022/06/19 05:17:02;;;;;;;4.75;3.65;;;;;;;24.70;50.77;100918.25;4805738;29;20053;-71
2022/06/19 05:19:30;;;;;;;3.45;3.15;;;;;;;25.04;49.63;100923.34;4763826;30;20052;-71
2022/06/19 05:22:01;;;;;;;8.00;3.63;;;;;;;25.33;48.73;100923.81;4774290;29;20055;-71
2022/06/19 05:24:29;;;;;;;6.35;3.15;;;;;;;25.49;48.26;100920.09;4804541;29;20051;-71
2022/06/19 05:26:57;;;;;;;3.08;2.72;;;;;;;25.70;47.75;100918.88;4810452;29;20054;-71
2022/06/19 05:29:25;;;;;;;3.53;3.22;;;;;;;25.83;46.81;100911.03;4798425;29;20051;-71
2022/06/19 05:31:59;;;;;;;;;;;;;;;25.97;46.28;100916.03;4810876;29;20051;-71
2022/06/19 05:34:26;;;;;;;2.75;2.55;;;;;;;25.87;46.30;100906.28;4806744;29;20392;-71
2022/06/19 05:36:54;;;;;;;3.53;3.05;;;;;;;25.93;46.40;100904.78;4799779;29;20395;-71
2022/06/19 05:39:22;;;;;;;3.08;2.85;;;;;;;26.02;46.32;100921.34;4824183;29;20410;-72
2022/06/19 05:41:52;;;;;;;4.07;3.67;;;;;;;26.05;45.65;100916.97;4821322;29;20043;-71
2022/06/19 05:44:20;;;;;;;3.63;3.30;;;;;;;26.10;45.97;100919.44;4823252;29;20049;-71
2022/06/19 05:46:49;;;;;;;4.50;3.60;;;;;;;26.12;45.57;100917.06;4824287;29;20502;-71
2022/06/19 05:49:17;;;;;;;4.80;3.20;;;;;;;26.25;45.56;100926.09;4823312;29;20062;-71
2022/06/19 05:51:46;;;;;;;3.10;2.80;;;;;;;26.27;45.19;100921.72;4825075;29;20050;-71
2022/06/19 05:54:14;;;;;;;3.60;3.30;;;;;;;26.40;44.48;100922.25;4806646;29;20048;-71
2022/06/19 05:56:43;;;;;;;4.35;3.00;;;;;;;26.48;43.75;100917.56;4808212;29;20050;-71
2022/06/19 05:59:16;;;;;;;4.00;3.10;;;;;;;26.55;43.44;100926.03;4820069;29;20050;-71
2022/06/19 06:01:44;;;;;;;3.05;2.85;;;;;;;26.64;43.35;100927.78;4818130;29;20057;-71
2022/06/19 06:04:12;;;;;;;3.35;3.05;;;;;;;26.66;42.63;100925.38;4811439;29;20074;-71
2022/06/19 06:06:41;;;;;;;3.25;3.00;;;;;;;26.75;42.71;100937.13;4818912;29;20054;-71
2022/06/19 06:09:13;;;;;;;2.45;2.35;;;;;;;26.73;42.78;100928.25;4802982;29;20059;-70
2022/06/19 06:11:41;;;;;;;3.17;2.88;;;;;;;26.88;42.34;100934.06;4797245;29;20058;-70
2022/06/19 06:14:09;;;;;;;4.63;2.90;;;;;;;27.02;41.85;100923.00;4795215;29;20082;-71
2022/06/19 06:16:38;;;;;;;2.90;2.60;;;;;;;26.99;40.64;100923.78;4798407;29;20050;-70
2022/06/19 06:19:06;;;;;;;3.10;2.90;;;;;;;27.05;40.44;100922.22;4800886;29;20042;-70
2022/06/19 06:21:34;;;;;;;5.85;3.03;;;;;;;27.09;39.06;100916.66;4803432;29;20054;-70
2022/06/19 06:24:02;;;;;;;3.20;2.90;;;;;;;27.11;38.38;100914.25;4800039;29;20054;-70
2022/06/19 06:26:30;;;;;;;2.97;2.50;;;;;;;27.18;38.28;100919.13;4802387;29;20050;-70
2022/06/19 06:29:17;;;;;;;4.10;2.63;;;;;;;27.22;38.23;100919.97;4803769;29;20061;-70
2022/06/19 06:31:45;;;;;;;3.17;2.40;;;;;;;27.33;37.67;100915.25;4801912;29;20054;-71
2022/06/19 06:34:15;;;;;;;2.25;1.98;;;;;;;27.42;36.49;100926.16;4801967;29;20046;-70
2022/06/19 06:36:43;;;;;;;12.52;2.88;;;;;;;27.55;36.76;100921.03;4809847;29;20046;-70
2022/06/19 06:39:11;;;;;;;11.48;2.47;;;;;;;27.61;35.01;100927.94;4803016;29;20074;-70
2022/06/19 06:41:39;;;;;;;3.20;2.20;;;;;;;27.75;36.52;100918.81;4796130;29;20415;-74
2022/06/19 06:44:12;;;;;;;3.63;2.45;;;;;;;27.88;34.66;100918.50;4800840;29;20062;-75
2022/06/19 06:46:41;;;;;;;6.85;2.83;;;;;;;27.99;36.01;100924.19;4799794;29;20050;-74
2022/06/19 06:49:10;;;;;;;6.88;2.53;;;;;;;27.96;33.38;100922.97;4801587;29;20391;-75
2022/06/19 06:51:38;;;;;;;1.88;1.67;;;;;;;28.00;32.31;100923.78;4804325;29;20054;-75
2022/06/19 06:54:06;;;;;;;5.28;1.80;;;;;;;28.07;33.40;100920.22;4801607;29;20459;-76
2022/06/19 06:56:35;;;;;;;1.90;1.80;;;;;;;28.19;32.36;100926.72;4800334;29;20051;-77
2022/06/19 06:59:03;;;;;;;3.28;1.80;;;;;;;28.35;30.99;100917.97;4804584;29;20055;-76
2022/06/19 07:01:32;;;;;;;2.97;1.55;;;;;;;28.41;30.65;100908.78;4804007;29;20407;-77
2022/06/19 07:04:01;;;;;;;4.35;1.65;;;;;;;28.51;31.50;100921.25;4805332;29;20050;-77
2022/06/19 07:06:30;;;;;;;5.10;1.50;;;;;;;28.59;30.94;100912.84;4805202;29;20051;-77
2022/06/19 07:08:59;;;;;;;4.53;1.90;;;;;;;28.54;30.75;100916.84;4805172;29;20043;-77
2022/06/19 07:11:32;;;;;;;1.70;1.60;;;;;;;28.55;31.54;100915.66;4804965;29;20043;-76
2022/06/19 07:14:00;;;;;;;2.13;1.90;;;;;;;28.66;31.65;100919.31;4805017;29;20506;-76
2022/06/19 07:16:28;;;;;;;5.80;2.33;;;;;;;28.68;31.61;100905.63;4805028;29;20059;-77
2022/06/19 07:18:56;;;;;;;4.10;1.75;;;;;;;28.75;31.66;100910.47;4803794;29;20509;-77
2022/06/19 07:21:24;;;;;;;2.17;2.08;;;;;;;28.79;30.52;100913.31;4815390;29;20046;-77
2022/06/19 07:23:52;;;;;;;2.22;1.73;;;;;;;28.93;31.76;100916.16;4823434;29;20046;-76
2022/06/19 07:26:22;;;;;;;4.20;1.60;;;;;;;29.07;30.73;100914.56;4823497;29;20051;-77
2022/06/19 07:28:50;;;;;;;1.85;1.60;;;;;;;29.16;30.38;100917.81;4823066;29;20055;-77
2022/06/19 07:31:26;;;;;;;1.25;1.15;;;;;;;29.08;29.53;100904.94;4823399;29;20057;-77
2022/06/19 07:33:54;;;;;;;1.63;1.52;;;;;;;29.18;29.84;100901.31;4823268;29;20046;-77
2022/06/19 07:36:23;;;;;;;1.50;1.40;;;;;;;29.23;30.05;100906.53;4823420;29;20053;-77
2022/06/19 07:38:51;;;;;;;1.30;1.20;;;;;;;29.35;29.38;100907.34;4823099;29;20061;-77
2022/06/19 07:41:19;;;;;;;2.95;1.33;;;;;;;29.39;29.39;100902.53;4823206;29;20054;-77
2022/06/19 07:43:50;;;;;;;1.40;1.30;;;;;;;29.49;29.49;100901.75;4823332;29;20061;-77
2022/06/19 07:46:19;;;;;;;2.35;1.40;;;;;;;29.56;29.73;100900.94;4823355;29;20494;-77
2022/06/19 07:51:34;;;;;;;2.30;1.40;;;;;;;29.67;29.19;100900.13;4799242;29;20050;-77
2022/06/19 07:54:03;;;;;;;1.90;1.80;;;;;;;29.63;29.57;100900.13;4823106;29;20718;-76
2022/06/19 07:56:31;;;;;;;1.70;1.60;;;;;;;29.65;29.68;100908.97;4821972;29;20058;-76
2022/06/19 07:58:59;;;;;;;2.58;1.92;;;;;;;29.61;29.08;100908.97;4823014;29;20054;-76
2022/06/19 08:01:28;;;;;;;1.58;1.48;;;;;;;29.57;30.01;100907.38;4823115;29;20406;-77
2022/06/19 08:04:16;;;;;;;2.10;1.95;;;;;;;29.60;30.42;100910.19;4823144;29;20046;-76
2022/06/19 08:06:44;;;;;;;3.75;2.10;;;;;;;29.58;30.01;100904.16;4797097;29;20046;-77
2022/06/19 08:09:12;;;;;;;2.03;1.75;;;;;;;29.55;30.28;100910.59;4823447;29;20050;-77
2022/06/19 08:11:41;;;;;;;2.75;1.65;;;;;;;29.66;30.21;100909.78;4826189;29;20490;-77
2022/06/19 08:14:08;;;;;;;1.35;1.25;;;;;;;29.75;29.67;100918.63;4826601;29;20057;-77
2022/06/19 08:16:36;;;;;;;1.77;1.45;;;;;;;29.80;27.54;100911.78;4826276;29;20054;-77
2022/06/19 08:19:05;;;;;;;1.73;1.30;;;;;;;29.77;27.81;100911.38;4820948;29;20054;-77
2022/06/19 08:21:32;;;;;;;1.00;0.98;;;;;;;29.91;27.39;100909.75;4819248;29;20081;-76
2022/06/19 08:24:00;;;;;;;1.60;1.50;;;;;;;30.00;28.01;100906.50;4826095;29;20398;-77
2022/06/19 08:26:28;;;;;;;1.70;1.02;;;;;;;29.98;28.18;100912.53;4826133;29;20047;-78
2022/06/19 08:29:00;;;;;;;2.70;1.10;;;;;;;29.98;28.51;100904.09;4825938;29;20050;-77
2022/06/19 08:31:30;;;;;;;1.40;1.30;;;;;;;29.88;27.93;100904.91;4826264;29;20058;-77
2022/06/19 08:33:59;;;;;;;1.10;1.08;;;;;;;29.92;28.64;100902.88;4824769;29;20061;-77
2022/06/19 08:36:27;;;;;;;3.50;1.30;;;;;;;29.92;29.06;100902.88;4826160;29;20050;-77
2022/06/19 08:39:01;;;;;;;0.82;0.82;;;;;;;29.97;29.15;100907.31;4825844;29;20046;-77
2022/06/19 08:41:35;;;;;;;3.50;1.30;;;;;;;30.20;28.07;100908.88;4825955;29;20065;-77
2022/06/19 08:44:14;;;;;;;1.20;1.20;;;;;;;30.15;27.87;100901.66;4825960;29;20055;-77
2022/06/19 08:47:13;;;;;;;2.88;1.58;;;;;;;30.16;28.53;100892.75;4824822;29;20077;-77
2022/06/19 08:50:07;;;;;;;1.83;1.25;;;;;;;30.26;27.64;100893.91;4823982;29;20054;-77
2022/06/19 08:52:44;;;;;;;0.82;0.82;;;;;;;30.31;27.67;100896.31;4825758;29;20506;-77
2022/06/19 08:55:28;;;;;;;0.90;0.90;;;;;;;30.38;27.06;100887.03;4825764;29;20058;-77
2022/06/19 08:58:13;;;;;;;1.40;1.30;;;;;;;30.30;27.44;100880.59;4825706;29;20057;-77
2022/06/19 09:00:52;;;;;;;;;;;;;;;30.44;27.01;100896.69;4826060;29;20502;-78
2022/06/19 09:05:36;;;;;;;1.50;1.40;;;;;;;30.35;27.44;100887.03;4800936;29;19928;-77
2022/06/19 09:06:43;;;;;;;1.30;1.20;;;;;;;30.47;27.10;100889.41;4825290;29;20073;-77
2022/06/19 09:09:29;;;;;;;1.48;1.33;;;;;;;30.55;27.41;100890.97;4825276;29;20517;-76
2022/06/19 09:12:45;;;;;;;1.85;1.38;;;;;;;30.75;27.33;100893.31;4802361;29;20439;-77
2022/06/19 09:15:17;;;;;;;1.80;1.27;;;;;;;30.82;27.68;100889.63;4823652;29;20418;-77
2022/06/19 09:17:48;;;;;;;1.35;1.08;;;;;;;31.03;27.48;100894.31;4825372;29;20058;-77
2022/06/19 09:20:50;;;;;;;1.88;1.52;;;;;;;31.20;27.48;100888.94;4811792;29;20051;-77
2022/06/19 09:23:44;;;;;;;1.48;1.27;;;;;;;31.03;27.16;100897.16;4817146;29;20080;-76
2022/06/19 09:26:25;;;;;;;1.70;1.27;;;;;;;31.07;27.10;100897.13;4825196;29;20061;-76
2022/06/19 09:29:40;;;;;;;1.58;1.48;;;;;;;31.26;27.61;100887.28;4823826;29;20061;-76
2022/06/19 09:32:16;;;;;;;1.70;1.45;;;;;;;31.14;26.96;100887.78;4823028;29;20065;-76
2022/06/19 09:35:03;;;;;;;5.00;1.50;;;;;;;31.11;27.57;100878.94;4825187;29;20486;-76
2022/06/19 09:37:35;;;;;;;4.95;1.70;;;;;;;31.19;26.90;100887.34;4824880;29;20054;-76
2022/06/19 09:40:09;;;;;;;1.75;1.58;;;;;;;31.33;26.85;100881.59;4824960;29;20046;-76
2022/06/19 09:42:43;;;;;;;1.50;1.40;;;;;;;31.29;27.45;100885.69;4824924;29;20047;-76
2022/06/19 09:45:16;;;;;;;4.57;1.92;;;;;;;31.48;27.95;100884.31;4824951;29;20050;-76
2022/06/19 09:47:57;;;;;;;1.63;1.52;;;;;;;31.67;26.84;100888.56;4824700;29;20046;-77
2022/06/19 09:51:13;;;;;;;1.40;1.30;;;;;;;31.73;26.58;100884.06;4824703;29;20054;-77
2022/06/19 09:53:57;;;;;;;1.38;1.27;;;;;;;31.61;26.91;100879.72;4823613;29;20050;-76
2022/06/19 09:56:50;;;;;;;2.00;1.65;;;;;;;31.75;26.03;100875.13;4824748;29;20490;-76
2022/06/19 09:59:54;;;;;;;1.63;1.52;;;;;;;31.83;26.17;100868.19;4824606;29;20050;-76
2022/06/19 10:02:32;;;;;;;1.85;1.75;;;;;;;31.79;26.48;100873.06;4817037;29;20054;-76
2022/06/19 10:05:16;;;;;;;2.17;1.90;;;;;;;31.58;26.61;100857.13;4824707;29;20059;-76
2022/06/19 10:07:56;;;;;;;1.50;1.40;;;;;;;32.01;26.70;100851.00;4824606;29;20047;-76
2022/06/19 10:10:42;;;;;;;1.70;1.60;;;;;;;32.20;26.45;100845.91;4824395;29;20058;-77
2022/06/19 10:13:33;;;;;;;2.20;1.80;;;;;;;32.32;25.89;100850.22;4824325;29;20133;-77
2022/06/19 10:16:11;;;;;;;2.00;1.80;;;;;;;32.27;26.45;100845.03;4824447;29;20057;-76
2022/06/19 10:18:44;;;;;;;1.58;1.48;;;;;;;32.21;26.25;100846.72;4797642;29;20054;-76
2022/06/19 10:24:09;;;;;;;1.88;1.70;;;;;;;32.27;26.37;100839.38;4824189;29;20053;-76
2022/06/19 10:26:43;;;;;;;2.05;1.38;;;;;;;32.43;25.68;100828.25;4823076;29;20050;-76
2022/06/19 10:29:37;;;;;;;2.83;1.67;;;;;;;32.69;26.05;100834.34;4824156;29;20415;-76
2022/06/19 10:32:17;;;;;;;1.95;1.75;;;;;;;32.62;25.03;100825.97;4823690;29;20065;-76
2022/06/19 10:35:19;;;;;;;2.15;1.58;;;;;;;32.68;26.25;100835.56;4823128;29;20050;-76
2022/06/19 10:38:01;;;;;;;1.60;1.48;;;;;;;32.54;26.03;100825.25;4824005;29;20398;-76
2022/06/19 10:40:41;;;;;;;2.42;1.48;;;;;;;32.55;26.20;100821.19;4823967;29;20046;-76
2022/06/19 10:43:48;;;;;;;1.23;1.20;;;;;;;32.73;25.83;100825.00;4822514;29;20054;-76
2022/06/19 10:46:17;;;;;;;1.92;1.83;;;;;;;32.94;26.06;100815.34;4823944;29;20057;-76
2022/06/19 10:48:50;;;;;;;1.67;1.58;;;;;;;33.06;25.54;100816.78;4822766;29;20502;-77
2022/06/19 10:51:34;;;;;;;3.57;1.70;;;;;;;32.98;26.05;100825.41;4823903;29;20399;-76
2022/06/19 10:54:23;;;;;;;1.52;1.42;;;;;;;33.09;25.53;100813.88;4823979;29;20308;-76
2022/06/19 10:57:19;;;;;;;2.83;1.70;;;;;;;33.06;25.12;100799.78;4804858;29;20057;-76
2022/06/19 10:59:48;;;;;;;3.72;1.75;;;;;;;33.24;25.12;100803.06;4823821;29;20043;-76
2022/06/19 11:05:10;;;;;;;1.52;1.42;;;;;;;33.34;24.87;100811.84;4799356;29;20047;-74
2022/06/19 11:07:39;;;;;;;1.63;1.52;;;;;;;33.42;24.67;100796.28;4823753;29;20061;-74
2022/06/19 11:10:19;;;;;;;2.60;1.42;;;;;;;33.42;25.07;100801.94;4798397;29;20065;-74
2022/06/19 11:12:56;;;;;;;1.45;1.35;;;;;;;33.30;24.54;100785.56;4823552;29;20050;-76
2022/06/19 11:15:24;;;;;;;3.22;1.42;;;;;;;33.36;24.87;100789.50;4823956;29;20399;-76
2022/06/19 11:18:13;;;;;;;1.40;1.30;;;;;;;33.23;24.37;100778.78;4823541;29;20058;-76
2022/06/19 11:21:02;;;;;;;2.80;1.25;;;;;;;33.46;24.73;100779.19;4808937;29;20414;-76
2022/06/19 11:23:49;;;;;;;1.98;1.73;;;;;;;33.39;24.63;100774.47;4821739;29;20065;-76
2022/06/19 11:26:25;;;;;;;1.45;1.35;;;;;;;33.33;25.39;100776.22;4823538;29;20049;-76
2022/06/19 11:28:53;;;;;;;2.10;1.27;;;;;;;33.61;24.91;100769.19;4823142;29;20047;-77
2022/06/19 11:31:34;;;;;;;1.30;1.30;;;;;;;33.77;24.64;100765.59;4823489;29;20058;-76
2022/06/19 11:37:12;;;;;;;4.18;1.85;;;;;;;34.21;23.70;100761.88;4823296;29;20051;-76
2022/06/19 11:39:46;;;;;;;1.42;1.33;;;;;;;34.34;23.82;100772.53;4799197;29;20248;-75
2022/06/19 11:42:25;;;;;;;1.73;1.63;;;;;;;34.48;24.26;100771.38;4823042;29;20065;-75
2022/06/19 11:44:56;;;;;;;1.80;1.70;;;;;;;34.47;24.29;100764.91;4821412;29;20046;-76
2022/06/19 11:47:35;;;;;;;2.53;1.88;;;;;;;34.55;24.16;100760.63;4821913;29;20058;-75
2022/06/19 11:50:32;;;;;;;1.83;1.73;;;;;;;34.72;23.67;100754.97;4823108;29;20069;-75
2022/06/19 11:53:02;;;;;;;1.40;1.30;;;;;;;34.50;23.96;100749.78;4822519;29;20489;-76
2022/06/19 11:55:36;;;;;;;1.92;1.73;;;;;;;34.67;24.52;100753.47;4823095;29;20398;-76
2022/06/19 11:58:29;;;;;;;2.75;2.38;;;;;;;34.79;23.69;100751.16;4822987;29;20061;-75
2022/06/19 12:01:10;;;;;;;1.70;1.17;;;;;;;34.53;24.53;100743.25;4821622;29;20046;-76
2022/06/19 12:03:43;;;;;;;1.40;1.30;;;;;;;34.65;24.78;100740.97;4823067;29;20070;-75
2022/06/19 12:06:13;;;;;;;1.55;1.45;;;;;;;34.61;24.53;100735.38;4823024;29;20486;-76